sensor_id;sensor_type;location;lat;lon;timestamp;pressure;altitude;pressure_sealevel;temperature;humidity
40794;BME280;26502;51.886;15.604;2023-05-09T00:01:55;101780.77;;;6.98;54.70
40794;BME280;26502;51.886;15.604;2023-05-09T00:07:02;101783.23;;;6.95;54.98
40794;BME280;26502;51.886;15.604;2023-05-09T00:12:08;101776.16;;;6.90;55.07
40794;BME280;26502;51.886;15.604;2023-05-09T00:17:15;101779.33;;;6.76;55.15
40794;BME280;26502;51.886;15.604;2023-05-09T00:22:22;101766.61;;;6.73;55.26
40794;BME280;26502;51.886;15.604;2023-05-09T00:27:28;101760.95;;;6.66;55.22
40794;BME280;26502;51.886;15.604;2023-05-09T00:32:34;101762.72;;;6.60;55.38
40794;BME280;26502;51.886;15.604;2023-05-09T00:37:41;101762.17;;;6.58;55.47
40794;BME280;26502;51.886;15.604;2023-05-09T00:42:46;101755.28;;;6.50;55.62
40794;BME280;26502;51.886;15.604;2023-05-09T00:47:53;101751.39;;;6.40;55.72
40794;BME280;26502;51.886;15.604;2023-05-09T00:52:59;101752.60;;;6.38;55.71
40794;BME280;26502;51.886;15.604;2023-05-09T00:58:05;101750.48;;;6.27;56.04
40794;BME280;26502;51.886;15.604;2023-05-09T01:03:11;101750.31;;;6.30;56.10
40794;BME280;26502;51.886;15.604;2023-05-09T01:08:28;101749.03;;;6.20;56.00
40794;BME280;26502;51.886;15.604;2023-05-09T01:13:43;101744.41;;;6.05;56.21
40794;BME280;26502;51.886;15.604;2023-05-09T01:18:59;101743.98;;;5.93;56.57
40794;BME280;26502;51.886;15.604;2023-05-09T01:24:23;101745.75;;;5.92;56.65
40794;BME280;26502;51.886;15.604;2023-05-09T01:29:36;101738.30;;;5.83;56.68
40794;BME280;26502;51.886;15.604;2023-05-09T01:34:44;101740.02;;;5.74;56.69
40794;BME280;26502;51.886;15.604;2023-05-09T01:39:55;101740.00;;;5.68;56.80
40794;BME280;26502;51.886;15.604;2023-05-09T01:45:05;101741.41;;;5.67;56.93
40794;BME280;26502;51.886;15.604;2023-05-09T01:50:12;101734.86;;;5.63;56.92
40794;BME280;26502;51.886;15.604;2023-05-09T01:55:19;101728.27;;;5.48;56.98
40794;BME280;26502;51.886;15.604;2023-05-09T02:00:29;101726.27;;;5.37;57.05
40794;BME280;26502;51.886;15.604;2023-05-09T02:05:36;101720.52;;;5.19;57.25
40794;BME280;26502;51.886;15.604;2023-05-09T02:10:44;101717.09;;;5.06;57.37
40794;BME280;26502;51.886;15.604;2023-05-09T02:15:50;101713.81;;;4.91;57.53
40794;BME280;26502;51.886;15.604;2023-05-09T02:20:57;101710.02;;;4.78;57.73
40794;BME280;26502;51.886;15.604;2023-05-09T02:26:03;101708.68;;;4.66;57.88
40794;BME280;26502;51.886;15.604;2023-05-09T02:31:10;101704.33;;;4.71;58.14
40794;BME280;26502;51.886;15.604;2023-05-09T02:36:17;101697.41;;;4.64;58.10
40794;BME280;26502;51.886;15.604;2023-05-09T02:41:26;101694.72;;;4.58;58.21
40794;BME280;26502;51.886;15.604;2023-05-09T02:46:33;101690.30;;;4.55;58.33
40794;BME280;26502;51.886;15.604;2023-05-09T02:51:39;101686.00;;;4.47;58.47
40794;BME280;26502;51.886;15.604;2023-05-09T02:56:45;101686.11;;;4.41;58.69
40794;BME280;26502;51.886;15.604;2023-05-09T03:01:51;101682.56;;;4.36;58.88
40794;BME280;26502;51.886;15.604;2023-05-09T03:06:57;101678.50;;;4.34;59.02
40794;BME280;26502;51.886;15.604;2023-05-09T03:12:07;101679.50;;;4.27;59.32
40794;BME280;26502;51.886;15.604;2023-05-09T03:17:14;101682.88;;;4.32;59.54
40794;BME280;26502;51.886;15.604;2023-05-09T03:22:25;101684.48;;;4.33;59.65
40794;BME280;26502;51.886;15.604;2023-05-09T03:27:35;101679.95;;;4.39;59.77
40794;BME280;26502;51.886;15.604;2023-05-09T03:32:42;101680.34;;;4.44;59.86
40794;BME280;26502;51.886;15.604;2023-05-09T03:37:48;101676.49;;;4.46;60.18
40794;BME280;26502;51.886;15.604;2023-05-09T03:42:54;101679.50;;;4.49;60.48
40794;BME280;26502;51.886;15.604;2023-05-09T03:48:00;101678.84;;;4.53;60.43
40794;BME280;26502;51.886;15.604;2023-05-09T03:53:10;101683.75;;;4.52;60.72
40794;BME280;26502;51.886;15.604;2023-05-09T03:58:16;101681.02;;;4.60;60.81
40794;BME280;26502;51.886;15.604;2023-05-09T04:03:24;101681.66;;;4.75;61.00
40794;BME280;26502;51.886;15.604;2023-05-09T04:08:32;101678.29;;;4.96;60.90
40794;BME280;26502;51.886;15.604;2023-05-09T04:13:38;101682.27;;;5.12;60.90
40794;BME280;26502;51.886;15.604;2023-05-09T04:18:51;101678.27;;;5.19;60.85
40794;BME280;26502;51.886;15.604;2023-05-09T04:23:57;101675.30;;;5.26;60.93
40794;BME280;26502;51.886;15.604;2023-05-09T04:29:16;101676.05;;;5.33;60.95
40794;BME280;26502;51.886;15.604;2023-05-09T04:34:27;101672.40;;;5.45;61.03
40794;BME280;26502;51.886;15.604;2023-05-09T04:39:35;101670.52;;;5.58;61.13
40794;BME280;26502;51.886;15.604;2023-05-09T04:44:48;101674.27;;;5.73;61.07
40794;BME280;26502;51.886;15.604;2023-05-09T04:49:55;101676.25;;;5.84;61.07
40794;BME280;26502;51.886;15.604;2023-05-09T04:55:01;101674.73;;;6.00;61.10
40794;BME280;26502;51.886;15.604;2023-05-09T05:00:12;101682.02;;;6.22;61.07
40794;BME280;26502;51.886;15.604;2023-05-09T05:05:20;101680.98;;;6.47;61.10
40794;BME280;26502;51.886;15.604;2023-05-09T05:10:26;101679.56;;;6.77;60.98
40794;BME280;26502;51.886;15.604;2023-05-09T05:15:39;101679.17;;;7.12;60.63
40794;BME280;26502;51.886;15.604;2023-05-09T05:20:46;101678.02;;;7.47;60.71
40794;BME280;26502;51.886;15.604;2023-05-09T05:25:52;101675.58;;;7.79;60.32
40794;BME280;26502;51.886;15.604;2023-05-09T05:30:58;101667.13;;;8.02;59.96
40794;BME280;26502;51.886;15.604;2023-05-09T05:36:05;101667.84;;;8.30;59.74
40794;BME280;26502;51.886;15.604;2023-05-09T05:41:11;101664.88;;;8.50;59.49
40794;BME280;26502;51.886;15.604;2023-05-09T05:46:19;101666.16;;;8.67;59.36
40794;BME280;26502;51.886;15.604;2023-05-09T05:51:25;101668.80;;;8.88;59.08
40794;BME280;26502;51.886;15.604;2023-05-09T05:56:31;101673.31;;;8.98;59.09
40794;BME280;26502;51.886;15.604;2023-05-09T06:01:38;101667.87;;;9.27;58.85
40794;BME280;26502;51.886;15.604;2023-05-09T06:06:44;101659.18;;;9.57;58.66
40794;BME280;26502;51.886;15.604;2023-05-09T06:11:50;101655.20;;;9.77;58.43
40794;BME280;26502;51.886;15.604;2023-05-09T06:16:57;101657.80;;;10.06;58.14
40794;BME280;26502;51.886;15.604;2023-05-09T06:22:03;101658.07;;;10.24;57.54
40794;BME280;26502;51.886;15.604;2023-05-09T06:27:09;101662.05;;;10.44;57.31
40794;BME280;26502;51.886;15.604;2023-05-09T06:32:15;101659.02;;;10.66;57.03
40794;BME280;26502;51.886;15.604;2023-05-09T06:37:23;101654.60;;;10.95;56.66
40794;BME280;26502;51.886;15.604;2023-05-09T06:42:28;101644.52;;;11.11;56.06
40794;BME280;26502;51.886;15.604;2023-05-09T06:47:37;101638.73;;;11.25;55.51
40794;BME280;26502;51.886;15.604;2023-05-09T06:52:43;101628.12;;;11.49;55.24
40794;BME280;26502;51.886;15.604;2023-05-09T06:57:49;101628.86;;;11.64;54.51
40794;BME280;26502;51.886;15.604;2023-05-09T07:02:54;101621.72;;;11.65;53.77
40794;BME280;26502;51.886;15.604;2023-05-09T07:08:01;101617.36;;;11.77;53.53
40794;BME280;26502;51.886;15.604;2023-05-09T07:13:07;101610.50;;;12.06;53.25
40794;BME280;26502;51.886;15.604;2023-05-09T07:18:13;101603.09;;;12.19;52.61
40794;BME280;26502;51.886;15.604;2023-05-09T07:23:19;101592.14;;;12.36;52.42
40794;BME280;26502;51.886;15.604;2023-05-09T07:28:25;101590.00;;;12.64;51.89
40794;BME280;26502;51.886;15.604;2023-05-09T07:33:31;101585.78;;;12.68;51.55
40794;BME280;26502;51.886;15.604;2023-05-09T07:38:37;101582.27;;;12.86;51.03
40794;BME280;26502;51.886;15.604;2023-05-09T07:43:44;101576.38;;;13.06;50.68
40794;BME280;26502;51.886;15.604;2023-05-09T07:48:50;101564.73;;;13.27;49.83
40794;BME280;26502;51.886;15.604;2023-05-09T07:53:55;101556.19;;;13.45;49.56
40794;BME280;26502;51.886;15.604;2023-05-09T07:59:02;101545.36;;;13.49;48.91
40794;BME280;26502;51.886;15.604;2023-05-09T08:04:08;101538.65;;;13.63;49.07
40794;BME280;26502;51.886;15.604;2023-05-09T08:09:14;101540.11;;;13.74;48.42
40794;BME280;26502;51.886;15.604;2023-05-09T08:14:19;101537.81;;;13.90;47.58
40794;BME280;26502;51.886;15.604;2023-05-09T08:19:25;101529.52;;;14.08;47.20
40794;BME280;26502;51.886;15.604;2023-05-09T08:24:31;101523.79;;;14.25;46.79
40794;BME280;26502;51.886;15.604;2023-05-09T08:29:37;101513.46;;;14.49;46.45
40794;BME280;26502;51.886;15.604;2023-05-09T08:34:43;101513.52;;;14.48;44.62
40794;BME280;26502;51.886;15.604;2023-05-09T08:39:49;101511.16;;;14.34;44.16
40794;BME280;26502;51.886;15.604;2023-05-09T08:44:56;101496.82;;;14.35;44.10
40794;BME280;26502;51.886;15.604;2023-05-09T08:50:02;101490.86;;;14.52;44.07
40794;BME280;26502;51.886;15.604;2023-05-09T08:55:09;101484.35;;;14.93;44.17
40794;BME280;26502;51.886;15.604;2023-05-09T09:00:17;101475.88;;;15.14;43.21
40794;BME280;26502;51.886;15.604;2023-05-09T09:05:24;101475.64;;;15.21;42.94
40794;BME280;26502;51.886;15.604;2023-05-09T09:10:32;101478.55;;;15.37;42.65
40794;BME280;26502;51.886;15.604;2023-05-09T09:15:41;101476.70;;;15.43;42.21
40794;BME280;26502;51.886;15.604;2023-05-09T09:20:51;101468.88;;;15.47;42.18
40794;BME280;26502;51.886;15.604;2023-05-09T09:26:00;101455.50;;;15.59;41.52
40794;BME280;26502;51.886;15.604;2023-05-09T09:31:21;101449.41;;;15.63;41.04
40794;BME280;26502;51.886;15.604;2023-05-09T09:36:28;101444.04;;;15.72;41.20
40794;BME280;26502;51.886;15.604;2023-05-09T09:41:37;101436.27;;;16.12;41.29
40794;BME280;26502;51.886;15.604;2023-05-09T09:46:44;101436.73;;;16.46;40.88
40794;BME280;26502;51.886;15.604;2023-05-09T09:51:55;101429.67;;;16.48;40.38
40794;BME280;26502;51.886;15.604;2023-05-09T09:57:02;101415.40;;;16.46;40.08
40794;BME280;26502;51.886;15.604;2023-05-09T10:02:08;101413.28;;;16.45;39.82
40794;BME280;26502;51.886;15.604;2023-05-09T10:07:15;101407.52;;;16.69;39.72
40794;BME280;26502;51.886;15.604;2023-05-09T10:12:26;101402.26;;;16.75;39.62
40794;BME280;26502;51.886;15.604;2023-05-09T10:17:34;101393.73;;;16.88;38.97
40794;BME280;26502;51.886;15.604;2023-05-09T10:22:42;101381.66;;;17.23;39.15
40794;BME280;26502;51.886;15.604;2023-05-09T10:27:48;101372.80;;;17.51;38.79
40794;BME280;26502;51.886;15.604;2023-05-09T10:33:01;101363.48;;;17.68;38.37
40794;BME280;26502;51.886;15.604;2023-05-09T10:38:08;101360.49;;;17.91;38.14
40794;BME280;26502;51.886;15.604;2023-05-09T10:43:16;101361.72;;;17.84;37.71
40794;BME280;26502;51.886;15.604;2023-05-09T10:48:22;101350.04;;;18.16;37.76
40794;BME280;26502;51.886;15.604;2023-05-09T10:53:41;101352.48;;;18.57;37.98
40794;BME280;26502;51.886;15.604;2023-05-09T10:58:48;101329.64;;;18.86;37.47
40794;BME280;26502;51.886;15.604;2023-05-09T11:03:55;101326.50;;;18.84;36.95
40794;BME280;26502;51.886;15.604;2023-05-09T11:09:31;101318.59;;;18.74;36.48
40794;BME280;26502;51.886;15.604;2023-05-09T11:14:45;101313.03;;;18.80;35.99
40794;BME280;26502;51.886;15.604;2023-05-09T11:20:02;101299.37;;;18.70;35.76
40794;BME280;26502;51.886;15.604;2023-05-09T11:25:10;101287.41;;;19.00;35.89
40794;BME280;26502;51.886;15.604;2023-05-09T11:30:18;101272.43;;;19.44;35.90
40794;BME280;26502;51.886;15.604;2023-05-09T11:35:25;101270.14;;;19.67;35.48
40794;BME280;26502;51.886;15.604;2023-05-09T11:40:32;101269.71;;;19.71;35.15
40794;BME280;26502;51.886;15.604;2023-05-09T11:45:39;101254.95;;;19.74;34.99
40794;BME280;26502;51.886;15.604;2023-05-09T11:50:47;101254.14;;;19.85;35.08
40794;BME280;26502;51.886;15.604;2023-05-09T11:55:53;101247.64;;;19.88;34.51
40794;BME280;26502;51.886;15.604;2023-05-09T12:01:00;101247.44;;;19.85;34.55
40794;BME280;26502;51.886;15.604;2023-05-09T12:06:07;101233.27;;;19.96;34.20
40794;BME280;26502;51.886;15.604;2023-05-09T12:11:13;101233.19;;;20.14;34.43
40794;BME280;26502;51.886;15.604;2023-05-09T12:16:20;101222.98;;;20.16;33.90
40794;BME280;26502;51.886;15.604;2023-05-09T12:21:26;101199.30;;;20.36;34.17
40794;BME280;26502;51.886;15.604;2023-05-09T12:26:33;101202.71;;;20.50;33.66
40794;BME280;26502;51.886;15.604;2023-05-09T12:31:41;101192.75;;;20.43;33.43
40794;BME280;26502;51.886;15.604;2023-05-09T12:36:47;101192.62;;;20.55;33.45
40794;BME280;26502;51.886;15.604;2023-05-09T12:41:54;101184.35;;;20.55;33.09
40794;BME280;26502;51.886;15.604;2023-05-09T12:47:01;101176.27;;;20.63;32.64
40794;BME280;26502;51.886;15.604;2023-05-09T12:52:17;101165.58;;;20.66;32.80
40794;BME280;26502;51.886;15.604;2023-05-09T12:57:25;101164.96;;;20.84;32.73
40794;BME280;26502;51.886;15.604;2023-05-09T13:02:36;101155.92;;;20.70;32.23
40794;BME280;26502;51.886;15.604;2023-05-09T13:07:44;101154.07;;;20.95;32.51
40794;BME280;26502;51.886;15.604;2023-05-09T13:12:51;101139.45;;;21.14;32.27
40794;BME280;26502;51.886;15.604;2023-05-09T13:17:58;101144.57;;;21.07;32.08
40794;BME280;26502;51.886;15.604;2023-05-09T13:23:03;101122.52;;;21.20;31.97
40794;BME280;26502;51.886;15.604;2023-05-09T13:28:10;101112.57;;;21.23;31.84
40794;BME280;26502;51.886;15.604;2023-05-09T13:33:16;101090.45;;;21.12;31.62
40794;BME280;26502;51.886;15.604;2023-05-09T13:38:22;101093.80;;;21.33;31.64
40794;BME280;26502;51.886;15.604;2023-05-09T13:43:29;101083.67;;;21.52;31.53
40794;BME280;26502;51.886;15.604;2023-05-09T13:48:35;101066.35;;;21.74;31.17
40794;BME280;26502;51.886;15.604;2023-05-09T13:53:43;101049.52;;;21.36;30.86
40794;BME280;26502;51.886;15.604;2023-05-09T13:58:49;101045.19;;;21.52;31.00
40794;BME280;26502;51.886;15.604;2023-05-09T14:03:55;101040.54;;;21.71;30.84
40794;BME280;26502;51.886;15.604;2023-05-09T14:09:01;101030.58;;;21.66;30.76
40794;BME280;26502;51.886;15.604;2023-05-09T14:14:07;101013.95;;;21.98;30.69
40794;BME280;26502;51.886;15.604;2023-05-09T14:19:14;101016.89;;;21.90;30.28
40794;BME280;26502;51.886;15.604;2023-05-09T14:24:22;101009.65;;;21.90;30.11
40794;BME280;26502;51.886;15.604;2023-05-09T14:29:28;101010.30;;;21.94;30.07
40794;BME280;26502;51.886;15.604;2023-05-09T14:34:34;101005.20;;;21.99;30.27
40794;BME280;26502;51.886;15.604;2023-05-09T14:39:40;101006.81;;;22.16;29.94
40794;BME280;26502;51.886;15.604;2023-05-09T14:44:47;100996.55;;;22.17;30.02
40794;BME280;26502;51.886;15.604;2023-05-09T14:49:53;100995.48;;;22.27;30.01
40794;BME280;26502;51.886;15.604;2023-05-09T14:54:59;100987.92;;;22.55;30.07
40794;BME280;26502;51.886;15.604;2023-05-09T15:00:07;100979.86;;;22.44;29.69
40794;BME280;26502;51.886;15.604;2023-05-09T15:05:14;100971.06;;;22.29;29.62
40794;BME280;26502;51.886;15.604;2023-05-09T15:10:20;100972.86;;;22.17;29.48
40794;BME280;26502;51.886;15.604;2023-05-09T15:15:27;100970.24;;;22.07;29.23
40794;BME280;26502;51.886;15.604;2023-05-09T15:20:33;100962.73;;;22.01;29.38
40794;BME280;26502;51.886;15.604;2023-05-09T15:25:41;100953.34;;;22.10;29.34
40794;BME280;26502;51.886;15.604;2023-05-09T15:30:47;100939.77;;;22.20;28.88
40794;BME280;26502;51.886;15.604;2023-05-09T15:35:54;100937.23;;;22.15;29.33
40794;BME280;26502;51.886;15.604;2023-05-09T15:41:01;100933.00;;;22.06;29.29
40794;BME280;26502;51.886;15.604;2023-05-09T15:46:08;100925.46;;;22.08;29.10
40794;BME280;26502;51.886;15.604;2023-05-09T15:51:13;100916.73;;;21.94;29.15
40794;BME280;26502;51.886;15.604;2023-05-09T15:56:19;100911.52;;;21.75;28.91
40794;BME280;26502;51.886;15.604;2023-05-09T16:01:26;100897.94;;;21.66;29.24
40794;BME280;26502;51.886;15.604;2023-05-09T16:06:33;100900.88;;;21.50;29.20
40794;BME280;26502;51.886;15.604;2023-05-09T16:11:39;100889.79;;;21.39;29.06
40794;BME280;26502;51.886;15.604;2023-05-09T16:16:44;100879.70;;;21.29;29.30
40794;BME280;26502;51.886;15.604;2023-05-09T16:21:53;100877.35;;;21.17;29.28
40794;BME280;26502;51.886;15.604;2023-05-09T16:27:00;100865.45;;;20.97;29.40
40794;BME280;26502;51.886;15.604;2023-05-09T16:32:07;100868.77;;;20.76;29.43
40794;BME280;26502;51.886;15.604;2023-05-09T16:37:13;100857.54;;;20.36;29.49
40794;BME280;26502;51.886;15.604;2023-05-09T16:42:19;100849.09;;;20.04;29.84
40794;BME280;26502;51.886;15.604;2023-05-09T16:47:26;100837.28;;;19.71;29.92
40794;BME280;26502;51.886;15.604;2023-05-09T16:52:31;100835.66;;;19.50;30.04
40794;BME280;26502;51.886;15.604;2023-05-09T16:57:38;100832.77;;;19.37;30.67
40794;BME280;26502;51.886;15.604;2023-05-09T17:02:44;100825.23;;;19.28;30.83
40794;BME280;26502;51.886;15.604;2023-05-09T17:07:50;100816.05;;;19.06;31.07
40794;BME280;26502;51.886;15.604;2023-05-09T17:12:56;100810.59;;;18.82;31.08
40794;BME280;26502;51.886;15.604;2023-05-09T17:18:02;100807.45;;;18.58;31.40
40794;BME280;26502;51.886;15.604;2023-05-09T17:23:08;100803.55;;;18.45;31.71
40794;BME280;26502;51.886;15.604;2023-05-09T17:28:14;100804.69;;;18.30;32.00
40794;BME280;26502;51.886;15.604;2023-05-09T17:33:20;100804.23;;;18.17;32.23
40794;BME280;26502;51.886;15.604;2023-05-09T17:38:26;100797.54;;;18.06;32.37
40794;BME280;26502;51.886;15.604;2023-05-09T17:43:32;100799.91;;;17.94;32.67
40794;BME280;26502;51.886;15.604;2023-05-09T17:48:38;100801.96;;;17.90;32.86
40794;BME280;26502;51.886;15.604;2023-05-09T17:53:45;100807.23;;;17.76;33.13
40794;BME280;26502;51.886;15.604;2023-05-09T17:58:51;100811.43;;;17.60;33.27
40794;BME280;26502;51.886;15.604;2023-05-09T18:03:57;100811.65;;;17.44;33.45
40794;BME280;26502;51.886;15.604;2023-05-09T18:09:04;100811.73;;;17.28;33.70
40794;BME280;26502;51.886;15.604;2023-05-09T18:14:10;100806.45;;;17.17;33.87
40794;BME280;26502;51.886;15.604;2023-05-09T18:19:17;100806.58;;;17.18;34.15
40794;BME280;26502;51.886;15.604;2023-05-09T18:24:23;100801.55;;;17.11;34.49
40794;BME280;26502;51.886;15.604;2023-05-09T18:29:30;100805.35;;;16.89;34.68
40794;BME280;26502;51.886;15.604;2023-05-09T18:34:36;100806.71;;;16.67;35.00
40794;BME280;26502;51.886;15.604;2023-05-09T18:39:42;100807.61;;;16.54;35.27
40794;BME280;26502;51.886;15.604;2023-05-09T18:44:48;100808.16;;;16.38;35.59
40794;BME280;26502;51.886;15.604;2023-05-09T18:49:54;100810.33;;;16.27;36.16
40794;BME280;26502;51.886;15.604;2023-05-09T18:55:00;100814.52;;;16.09;36.38
40794;BME280;26502;51.886;15.604;2023-05-09T19:00:08;100814.73;;;15.95;36.81
40794;BME280;26502;51.886;15.604;2023-05-09T19:05:14;100818.33;;;15.70;37.01
40794;BME280;26502;51.886;15.604;2023-05-09T19:10:20;100817.38;;;15.50;37.43
40794;BME280;26502;51.886;15.604;2023-05-09T19:15:26;100813.44;;;15.29;37.81
40794;BME280;26502;51.886;15.604;2023-05-09T19:20:33;100813.84;;;15.02;38.21
40794;BME280;26502;51.886;15.604;2023-05-09T19:25:39;100812.95;;;14.83;38.68
40794;BME280;26502;51.886;15.604;2023-05-09T19:30:46;100812.63;;;14.59;39.05
40794;BME280;26502;51.886;15.604;2023-05-09T19:35:51;100811.03;;;14.32;39.38
40794;BME280;26502;51.886;15.604;2023-05-09T19:40:57;100809.83;;;14.19;39.79
40794;BME280;26502;51.886;15.604;2023-05-09T19:46:03;100812.48;;;13.96;40.04
40794;BME280;26502;51.886;15.604;2023-05-09T19:51:10;100803.36;;;13.80;40.62
40794;BME280;26502;51.886;15.604;2023-05-09T19:56:18;100801.35;;;13.73;40.89
40794;BME280;26502;51.886;15.604;2023-05-09T20:01:27;100803.16;;;13.47;41.08
40794;BME280;26502;51.886;15.604;2023-05-09T20:06:33;100801.77;;;13.29;41.36
40794;BME280;26502;51.886;15.604;2023-05-09T20:11:39;100794.27;;;13.12;41.59
40794;BME280;26502;51.886;15.604;2023-05-09T20:16:45;100789.59;;;12.91;41.98
40794;BME280;26502;51.886;15.604;2023-05-09T20:21:51;100786.30;;;12.84;42.36
40794;BME280;26502;51.886;15.604;2023-05-09T20:26:57;100780.80;;;12.79;42.30
40794;BME280;26502;51.886;15.604;2023-05-09T20:32:03;100778.73;;;12.77;42.63
40794;BME280;26502;51.886;15.604;2023-05-09T20:37:10;100778.14;;;12.74;42.68
40794;BME280;26502;51.886;15.604;2023-05-09T20:42:16;100775.45;;;12.65;42.75
40794;BME280;26502;51.886;15.604;2023-05-09T20:47:22;100769.91;;;12.61;43.04
40794;BME280;26502;51.886;15.604;2023-05-09T20:52:28;100767.78;;;12.56;43.13
40794;BME280;26502;51.886;15.604;2023-05-09T20:57:34;100763.14;;;12.48;43.33
40794;BME280;26502;51.886;15.604;2023-05-09T21:02:40;100757.44;;;12.48;43.37
40794;BME280;26502;51.886;15.604;2023-05-09T21:07:46;100759.57;;;12.48;43.65
40794;BME280;26502;51.886;15.604;2023-05-09T21:12:53;100757.13;;;12.47;43.55
40794;BME280;26502;51.886;15.604;2023-05-09T21:17:59;100756.36;;;12.48;43.74
40794;BME280;26502;51.886;15.604;2023-05-09T21:23:05;100754.23;;;12.47;43.72
40794;BME280;26502;51.886;15.604;2023-05-09T21:28:12;100752.60;;;12.40;43.82
40794;BME280;26502;51.886;15.604;2023-05-09T21:33:19;100747.09;;;12.34;44.05
40794;BME280;26502;51.886;15.604;2023-05-09T21:38:25;100738.94;;;12.29;44.24
40794;BME280;26502;51.886;15.604;2023-05-09T21:43:31;100737.74;;;12.27;44.15
40794;BME280;26502;51.886;15.604;2023-05-09T21:48:37;100741.77;;;12.24;44.39
40794;BME280;26502;51.886;15.604;2023-05-09T21:53:43;100738.46;;;12.22;44.54
40794;BME280;26502;51.886;15.604;2023-05-09T21:58:49;100736.48;;;12.18;44.48
40794;BME280;26502;51.886;15.604;2023-05-09T22:03:55;100735.08;;;12.18;44.63
40794;BME280;26502;51.886;15.604;2023-05-09T22:09:02;100731.55;;;12.03;44.88
40794;BME280;26502;51.886;15.604;2023-05-09T22:14:09;100727.91;;;11.90;45.07
40794;BME280;26502;51.886;15.604;2023-05-09T22:19:15;100723.14;;;11.80;45.37
40794;BME280;26502;51.886;15.604;2023-05-09T22:24:21;100720.69;;;11.69;45.49
40794;BME280;26502;51.886;15.604;2023-05-09T22:29:27;100719.86;;;11.57;45.53
40794;BME280;26502;51.886;15.604;2023-05-09T22:34:36;100715.28;;;11.41;45.63
40794;BME280;26502;51.886;15.604;2023-05-09T22:39:42;100712.52;;;11.33;45.96
40794;BME280;26502;51.886;15.604;2023-05-09T22:44:49;100710.42;;;11.17;46.14
40794;BME280;26502;51.886;15.604;2023-05-09T22:49:56;100703.66;;;11.11;46.38
40794;BME280;26502;51.886;15.604;2023-05-09T22:55:02;100700.19;;;11.09;46.50
40794;BME280;26502;51.886;15.604;2023-05-09T23:00:11;100693.47;;;11.14;46.59
40794;BME280;26502;51.886;15.604;2023-05-09T23:05:18;100689.02;;;11.08;46.79
40794;BME280;26502;51.886;15.604;2023-05-09T23:10:25;100687.91;;;10.99;46.78
40794;BME280;26502;51.886;15.604;2023-05-09T23:15:31;100688.95;;;10.95;47.03
40794;BME280;26502;51.886;15.604;2023-05-09T23:20:38;100688.60;;;10.89;47.12
40794;BME280;26502;51.886;15.604;2023-05-09T23:25:43;100684.35;;;10.84;47.17
40794;BME280;26502;51.886;15.604;2023-05-09T23:30:49;100684.71;;;10.67;47.33
40794;BME280;26502;51.886;15.604;2023-05-09T23:35:56;100682.88;;;10.58;47.54
40794;BME280;26502;51.886;15.604;2023-05-09T23:41:02;100678.52;;;10.55;47.80
40794;BME280;26502;51.886;15.604;2023-05-09T23:46:08;100672.77;;;10.47;47.88
40794;BME280;26502;51.886;15.604;2023-05-09T23:51:14;100668.38;;;10.33;48.06
40794;BME280;26502;51.886;15.604;2023-05-09T23:56:20;100665.54;;;10.27;48.17
